PWSweather.com
Personal Weather Stations
Station Observations
SHAHALMS1
Eftra, Falkenberg, HA

EftraFalkenberg, HA

Lat: 56.85, Lon: 12.65

Elevation: 140

Station Type:

http://hem.passagen.se/risarp101

High Low Average
Temperature 68.4°F20.2°C 53.1°F11.7°C 60.1°F15.6°C
Dew Point 58.8°F14.9°C 41.6°F5.3°C 52.8°F11.6°C
Winds 28.8 mph 46.3 kmh Calm Calm 10.0 mph S16.1 kmh S
Wind Gusts 40.4 mph65.0 kmh -- 16.0 mph25.7 kmh
Humidity 94% 60% 77%
Pressure 29.68 in1005.1 mb 29.27 in991.2 mb -
Precipitation 0.20 in5.1 mm - -
Hour Temp Dew Point Humidity Winds Wind Gusts Pressure Precip Precip Rate Daily Precip Total
12:00 AM 59.0°F15.0°C 57.0°F13.9°C 93% 6.3 mph SSE10.1 kmh SSE 14.3 mph23.0 kmh 29.65 in1004.1 mb 0.00 in0.0 mm 0.00 in0.0 mm 0.00 in0.0 mm
12:15 AM 59.0°F15.0°C 57.0°F13.9°C 93% 6.7 mph S10.8 kmh S 19.0 mph30.6 kmh 29.68 in1005.1 mb 0.00 in0.0 mm 0.00 in0.0 mm 0.00 in0.0 mm
12:30 AM 59.2°F15.1°C 57.2°F14.0°C 93% 6.3 mph SSE10.1 kmh SSE 19.7 mph31.7 kmh 29.68 in1005.1 mb 0.00 in0.0 mm 0.00 in0.0 mm 0.00 in0.0 mm
12:45 AM 59.4°F15.2°C 57.3°F14.1°C 93% 7.0 mph SE11.3 kmh SE 14.0 mph22.5 kmh 29.68 in1005.1 mb 0.00 in0.0 mm 0.00 in0.0 mm 0.00 in0.0 mm
01:00 AM 59.4°F15.2°C 57.3°F14.1°C 93% 4.6 mph SSE7.4 kmh SSE 10.4 mph16.7 kmh 29.68 in1005.1 mb 0.00 in0.0 mm 0.00 in0.0 mm 0.00 in0.0 mm
01:15 AM 59.7°F15.4°C 58.0°F14.4°C 94% 6.1 mph SSE9.8 kmh SSE 11.8 mph19.0 kmh 29.65 in1004.1 mb 0.00 in0.0 mm 0.00 in0.0 mm 0.00 in0.0 mm
01:30 AM 59.7°F15.4°C 57.7°F14.3°C 93% 5.9 mph SSE9.5 kmh SSE 13.6 mph21.9 kmh 29.65 in1004.1 mb 0.00 in0.0 mm 0.00 in0.0 mm 0.00 in0.0 mm
01:45 AM 59.7°F15.4°C 57.7°F14.3°C 93% 6.4 mph SE10.3 kmh SE 13.6 mph21.9 kmh 29.62 in1003.0 mb 0.00 in0.0 mm 0.00 in0.0 mm 0.00 in0.0 mm
02:00 AM 59.7°F15.4°C 57.7°F14.3°C 93% 5.1 mph SE8.2 kmh SE 11.5 mph18.5 kmh 29.62 in1003.0 mb 0.00 in0.0 mm 0.00 in0.0 mm 0.00 in0.0 mm
02:15 AM 59.9°F15.5°C 57.9°F14.4°C 93% 6.6 mph SE10.6 kmh SE 13.6 mph21.9 kmh 29.62 in1003.0 mb 0.00 in0.0 mm 0.00 in0.0 mm 0.00 in0.0 mm
02:30 AM 60.1°F15.6°C 58.0°F14.4°C 93% 7.5 mph SE12.1 kmh SE 16.5 mph26.6 kmh 29.62 in1003.0 mb 0.00 in0.0 mm 0.00 in0.0 mm 0.00 in0.0 mm
02:45 AM 60.1°F15.6°C 58.0°F14.4°C 93% 7.2 mph SE11.6 kmh SE 15.4 mph24.8 kmh 29.59 in1002.0 mb 0.00 in0.0 mm 0.00 in0.0 mm 0.00 in0.0 mm
03:00 AM 60.4°F15.8°C 58.4°F14.7°C 93% 6.6 mph SE10.6 kmh SE 12.9 mph20.8 kmh 29.59 in1002.0 mb 0.00 in0.0 mm 0.00 in0.0 mm 0.00 in0.0 mm
03:15 AM 60.6°F15.9°C 58.6°F14.8°C 93% 7.0 mph SE11.3 kmh SE 15.0 mph24.1 kmh 29.59 in1002.0 mb 0.00 in0.0 mm 0.00 in0.0 mm 0.00 in0.0 mm
03:30 AM 60.8°F16.0°C 58.8°F14.9°C 93% 6.3 mph SSE10.1 kmh SSE 16.8 mph27.0 kmh 29.59 in1002.0 mb 0.00 in0.0 mm 0.00 in0.0 mm 0.00 in0.0 mm
03:45 AM 60.8°F16.0°C 58.8°F14.9°C 93% 7.9 mph SSE12.7 kmh SSE 15.0 mph24.1 kmh 29.56 in1001.0 mb 0.00 in0.0 mm 0.00 in0.0 mm 0.00 in0.0 mm
04:00 AM 61.0°F16.1°C 58.6°F14.8°C 92% 6.3 mph SE10.1 kmh SE 12.2 mph19.6 kmh 29.56 in1001.0 mb 0.00 in0.0 mm 0.00 in0.0 mm 0.00 in0.0 mm
04:15 AM 61.0°F16.1°C 58.6°F14.8°C 92% 6.0 mph SE9.7 kmh SE 16.5 mph26.6 kmh 29.56 in1001.0 mb 0.00 in0.0 mm 0.00 in0.0 mm 0.00 in0.0 mm
04:30 AM 61.2°F16.2°C 58.5°F14.7°C 91% 4.8 mph SE7.7 kmh SE 14.0 mph22.5 kmh 29.56 in1001.0 mb 0.00 in0.0 mm 0.00 in0.0 mm 0.00 in0.0 mm
04:45 AM 61.2°F16.2°C 58.2°F14.6°C 90% 5.5 mph SE8.9 kmh SE 13.6 mph21.9 kmh 29.53 in1000.0 mb 0.00 in0.0 mm 0.00 in0.0 mm 0.00 in0.0 mm
05:00 AM 61.0°F16.1°C 57.7°F14.3°C 89% 6.5 mph SE10.5 kmh SE 13.6 mph21.9 kmh 29.53 in1000.0 mb 0.00 in0.0 mm 0.00 in0.0 mm 0.00 in0.0 mm
05:15 AM 60.8°F16.0°C 57.2°F14.0°C 88% 7.4 mph SE11.9 kmh SE 16.5 mph26.6 kmh 29.50 in999.0 mb 0.00 in0.0 mm 0.00 in0.0 mm 0.00 in0.0 mm
05:30 AM 61.0°F16.1°C 57.4°F14.1°C 88% 6.6 mph SE10.6 kmh SE 15.7 mph25.3 kmh 29.47 in998.0 mb 0.00 in0.0 mm 0.00 in0.0 mm 0.00 in0.0 mm
05:45 AM 61.0°F16.1°C 57.1°F13.9°C 87% 6.6 mph SE10.6 kmh SE 13.6 mph21.9 kmh 29.50 in999.0 mb 0.00 in0.0 mm 0.00 in0.0 mm 0.00 in0.0 mm
06:00 AM 61.0°F16.1°C 56.8°F13.8°C 86% 7.2 mph SE11.6 kmh SE 16.5 mph26.6 kmh 29.47 in998.0 mb 0.00 in0.0 mm 0.00 in0.0 mm 0.00 in0.0 mm
06:15 AM 61.0°F16.1°C 56.4°F13.6°C 85% 8.7 mph SE14.0 kmh SE 16.1 mph25.9 kmh 29.47 in998.0 mb 0.00 in0.0 mm 0.00 in0.0 mm 0.00 in0.0 mm
06:30 AM 61.2°F16.2°C 56.6°F13.7°C 85% 5.8 mph SE9.3 kmh SE 11.8 mph19.0 kmh 29.47 in998.0 mb 0.00 in0.0 mm 0.00 in0.0 mm 0.00 in0.0 mm
06:45 AM 61.2°F16.2°C 56.6°F13.7°C 85% 3.5 mph E5.6 kmh E 9.3 mph15.0 kmh 29.45 in997.3 mb 0.00 in0.0 mm 0.00 in0.0 mm 0.00 in0.0 mm
07:00 AM 61.7°F16.5°C 56.8°F13.8°C 84% 5.9 mph SE9.5 kmh SE 11.5 mph18.5 kmh 29.47 in998.0 mb 0.00 in0.0 mm 0.00 in0.0 mm 0.00 in0.0 mm
07:15 AM 61.9°F16.6°C 57.0°F13.9°C 84% 5.9 mph SE9.5 kmh SE 11.8 mph19.0 kmh 29.45 in997.3 mb 0.00 in0.0 mm 0.00 in0.0 mm 0.00 in0.0 mm
07:30 AM 62.4°F16.9°C 57.2°F14.0°C 83% 5.5 mph S8.9 kmh S 14.0 mph22.5 kmh 29.45 in997.3 mb 0.00 in0.0 mm 0.00 in0.0 mm 0.00 in0.0 mm
07:45 AM 62.8°F17.1°C 56.9°F13.8°C 81% 8.5 mph SE13.7 kmh SE 15.0 mph24.1 kmh 29.41 in995.9 mb 0.00 in0.0 mm 0.00 in0.0 mm 0.00 in0.0 mm
08:00 AM 62.8°F17.1°C 56.9°F13.8°C 81% 4.3 mph S6.9 kmh S 6.4 mph10.3 kmh 29.41 in995.9 mb 0.00 in0.0 mm 0.00 in0.0 mm 0.00 in0.0 mm
08:15 AM 63.7°F17.6°C 57.0°F13.9°C 79% 11.9 mph SE19.2 kmh SE 17.5 mph28.2 kmh 29.39 in995.3 mb 0.00 in0.0 mm 0.00 in0.0 mm 0.00 in0.0 mm
08:30 AM 64.8°F18.2°C 57.7°F14.3°C 78% 7.3 mph SE11.7 kmh SE 12.9 mph20.8 kmh 29.36 in994.2 mb 0.00 in0.0 mm 0.00 in0.0 mm 0.00 in0.0 mm
08:45 AM 64.9°F18.3°C 57.2°F14.0°C 76% 6.3 mph E10.1 kmh E 12.9 mph20.8 kmh 29.39 in995.3 mb 0.00 in0.0 mm 0.00 in0.0 mm 0.00 in0.0 mm
09:00 AM 64.9°F18.3°C 57.2°F14.0°C 76% 7.7 mph E12.4 kmh E 12.9 mph20.8 kmh 29.36 in994.2 mb 0.00 in0.0 mm 0.00 in0.0 mm 0.00 in0.0 mm
09:15 AM 65.5°F18.6°C 57.3°F14.1°C 75% 10.0 mph S16.1 kmh S 17.2 mph27.7 kmh 29.36 in994.2 mb 0.00 in0.0 mm 0.00 in0.0 mm 0.00 in0.0 mm
09:30 AM 66.4°F19.1°C 57.5°F14.2°C 73% 6.2 mph SE10.0 kmh SE 16.8 mph27.0 kmh 29.36 in994.2 mb 0.00 in0.0 mm 0.00 in0.0 mm 0.00 in0.0 mm
09:45 AM 66.9°F19.4°C 56.8°F13.8°C 70% 5.7 mph S9.2 kmh S 13.6 mph21.9 kmh 29.36 in994.2 mb 0.00 in0.0 mm 0.00 in0.0 mm 0.00 in0.0 mm
10:00 AM 66.9°F19.4°C 57.2°F14.0°C 71% 6.4 mph SE10.3 kmh SE 7.9 mph12.7 kmh 29.33 in993.2 mb 0.00 in0.0 mm 0.00 in0.0 mm 0.00 in0.0 mm
10:15 AM 67.5°F19.7°C 57.3°F14.1°C 70% 11.0 mph SE17.7 kmh SE 16.1 mph25.9 kmh 29.33 in993.2 mb 0.00 in0.0 mm 0.00 in0.0 mm 0.00 in0.0 mm
10:30 AM 67.6°F19.8°C 56.7°F13.7°C 68% 6.7 mph E10.8 kmh E 16.1 mph25.9 kmh 29.30 in992.2 mb 0.00 in0.0 mm 0.00 in0.0 mm 0.00 in0.0 mm
10:45 AM 68.0°F20.0°C 57.0°F13.9°C 68% 4.1 mph SE6.6 kmh SE 6.1 mph9.8 kmh 29.33 in993.2 mb 0.00 in0.0 mm 0.00 in0.0 mm 0.00 in0.0 mm
11:00 AM 67.8°F19.9°C 56.9°F13.8°C 68% 4.4 mph E7.1 kmh E 5.4 mph8.7 kmh 29.33 in993.2 mb 0.00 in0.0 mm 0.00 in0.0 mm 0.00 in0.0 mm
11:15 AM 67.3°F19.6°C 56.4°F13.6°C 68% 4.4 mph E7.1 kmh E 5.4 mph8.7 kmh 29.33 in993.2 mb 0.00 in0.0 mm 0.00 in0.0 mm 0.00 in0.0 mm
11:30 AM 66.9°F19.4°C 56.0°F13.3°C 68% 4.4 mph E7.1 kmh E 5.4 mph8.7 kmh 29.33 in993.2 mb 0.00 in0.0 mm 0.00 in0.0 mm 0.00 in0.0 mm
11:45 AM 67.1°F19.5°C 57.0°F13.9°C 70% 4.4 mph E7.1 kmh E 5.4 mph8.7 kmh 29.33 in993.2 mb 0.00 in0.0 mm 0.00 in0.0 mm 0.00 in0.0 mm
12:00 PM 67.8°F19.9°C 58.1°F14.5°C 71% 2.2 mph S3.5 kmh S 8.9 mph14.3 kmh 29.33 in993.2 mb 0.00 in0.0 mm 0.00 in0.0 mm 0.00 in0.0 mm
12:16 PM 68.4°F20.2°C 58.2°F14.6°C 70% 7.3 mph S11.7 kmh S 8.9 mph14.3 kmh 29.30 in992.2 mb 0.00 in0.0 mm 0.00 in0.0 mm 0.00 in0.0 mm
12:30 PM 67.8°F19.9°C 57.7°F14.3°C 70% 7.3 mph S11.7 kmh S 8.9 mph14.3 kmh 29.30 in992.2 mb 0.00 in0.0 mm 0.00 in0.0 mm 0.00 in0.0 mm
12:45 PM 67.3°F19.6°C 56.8°F13.8°C 69% 7.3 mph S11.7 kmh S 8.9 mph14.3 kmh 29.27 in991.2 mb 0.00 in0.0 mm 0.00 in0.0 mm 0.00 in0.0 mm
01:00 PM 64.6°F18.1°C 57.9°F14.4°C 79% 28.8 mph S46.3 kmh S 40.4 mph65.0 kmh 29.33 in993.2 mb 0.05 in1.3 mm 0.07 in1.8 mm 0.05 in1.3 mm
01:15 PM 62.8°F17.1°C 58.2°F14.6°C 85% 15.1 mph SW24.3 kmh SW 19.0 mph30.6 kmh 29.33 in993.2 mb 0.15 in3.8 mm 0.40 in10.2 mm 0.15 in3.8 mm
01:30 PM 61.9°F16.6°C 58.0°F14.4°C 87% 14.8 mph W23.8 kmh W 18.3 mph29.5 kmh 29.33 in993.2 mb 0.15 in3.8 mm 0.00 in0.0 mm 0.15 in3.8 mm
01:45 PM 60.1°F15.6°C 55.2°F12.9°C 84% 9.5 mph SSW15.3 kmh SSW 15.7 mph25.3 kmh 29.33 in993.2 mb 0.19 in4.8 mm 0.16 in4.1 mm 0.20 in5.1 mm
02:00 PM 59.5°F15.3°C 55.0°F12.8°C 85% 8.7 mph SW14.0 kmh SW 13.6 mph21.9 kmh 29.30 in992.2 mb 0.15 in3.8 mm 0.00 in0.0 mm 0.20 in5.1 mm
02:15 PM 59.2°F15.1°C 54.7°F12.6°C 85% 17.1 mph S27.5 kmh S 26.5 mph42.6 kmh 29.36 in994.2 mb 0.05 in1.3 mm 0.00 in0.0 mm 0.20 in5.1 mm
02:30 PM 59.2°F15.1°C 54.7°F12.6°C 85% 15.6 mph SW25.1 kmh SW 26.8 mph43.1 kmh 29.33 in993.2 mb 0.05 in1.3 mm 0.00 in0.0 mm 0.20 in5.1 mm
02:45 PM 58.6°F14.8°C 52.5°F11.4°C 80% 15.7 mph WSW25.3 kmh WSW 20.4 mph32.8 kmh 29.33 in993.2 mb 0.00 in0.0 mm 0.00 in0.0 mm 0.20 in5.1 mm
03:00 PM 58.6°F14.8°C 52.1°F11.2°C 79% 16.6 mph W26.7 kmh W 20.4 mph32.8 kmh 29.33 in993.2 mb 0.00 in0.0 mm 0.00 in0.0 mm 0.20 in5.1 mm
03:15 PM 58.3°F14.6°C 50.7°F10.4°C 76% 16.6 mph W26.7 kmh W 20.4 mph32.8 kmh 29.36 in994.2 mb 0.00 in0.0 mm 0.00 in0.0 mm 0.20 in5.1 mm
03:30 PM 57.9°F14.4°C 49.7°F9.8°C 74% 16.6 mph W26.7 kmh W 20.4 mph32.8 kmh 29.36 in994.2 mb 0.00 in0.0 mm 0.00 in0.0 mm 0.20 in5.1 mm
03:45 PM 57.7°F14.3°C 49.9°F9.9°C 75% 16.6 mph W26.7 kmh W 20.4 mph32.8 kmh 29.36 in994.2 mb 0.00 in0.0 mm 0.00 in0.0 mm 0.20 in5.1 mm
04:00 PM 57.6°F14.2°C 49.3°F9.6°C 74% 16.6 mph W26.7 kmh W 20.4 mph32.8 kmh 29.36 in994.2 mb 0.00 in0.0 mm 0.00 in0.0 mm 0.20 in5.1 mm
04:15 PM 57.4°F14.1°C 47.7°F8.7°C 70% 16.6 mph W26.7 kmh W 20.4 mph32.8 kmh 29.36 in994.2 mb 0.00 in0.0 mm 0.00 in0.0 mm 0.20 in5.1 mm
04:30 PM 57.2°F14.0°C 47.9°F8.8°C 71% 16.6 mph W26.7 kmh W 20.4 mph32.8 kmh 29.36 in994.2 mb 0.00 in0.0 mm 0.00 in0.0 mm 0.20 in5.1 mm
04:45 PM 57.2°F14.0°C 48.3°F9.1°C 72% 16.6 mph W26.7 kmh W 20.4 mph32.8 kmh 29.30 in992.2 mb 0.00 in0.0 mm 0.00 in0.0 mm 0.20 in5.1 mm
05:00 PM 57.2°F14.0°C 46.7°F8.2°C 68% 10.2 mph S16.4 kmh S 12.5 mph20.1 kmh 29.33 in993.2 mb 0.00 in0.0 mm 0.00 in0.0 mm 0.20 in5.1 mm
05:15 PM 57.4°F14.1°C 46.1°F7.8°C 66% 12.5 mph WSW20.1 kmh WSW 16.5 mph26.6 kmh 29.33 in993.2 mb 0.00 in0.0 mm 0.00 in0.0 mm 0.20 in5.1 mm
05:30 PM 57.2°F14.0°C 46.3°F7.9°C 67% 13.6 mph W21.9 kmh W 17.2 mph27.7 kmh 29.30 in992.2 mb 0.00 in0.0 mm 0.00 in0.0 mm 0.20 in5.1 mm
05:45 PM 56.7°F13.7°C 44.2°F6.8°C 63% 17.6 mph W28.3 kmh W 26.8 mph43.1 kmh 29.30 in992.2 mb 0.00 in0.0 mm 0.00 in0.0 mm 0.20 in5.1 mm
06:00 PM 56.3°F13.5°C 44.3°F6.8°C 64% 21.8 mph W35.1 kmh W 26.8 mph43.1 kmh 29.33 in993.2 mb 0.00 in0.0 mm 0.00 in0.0 mm 0.20 in5.1 mm
06:15 PM 55.9°F13.3°C 43.5°F6.4°C 63% 21.8 mph W35.1 kmh W 26.8 mph43.1 kmh 29.30 in992.2 mb 0.00 in0.0 mm 0.00 in0.0 mm 0.20 in5.1 mm
06:30 PM 55.8°F13.2°C 43.3°F6.3°C 63% 13.7 mph ESE22.0 kmh ESE 16.8 mph27.0 kmh 29.30 in992.2 mb 0.00 in0.0 mm 0.00 in0.0 mm 0.20 in5.1 mm
06:45 PM 55.8°F13.2°C 43.8°F6.6°C 64% 13.7 mph ESE22.0 kmh ESE 16.8 mph27.0 kmh 29.30 in992.2 mb 0.00 in0.0 mm 0.00 in0.0 mm 0.20 in5.1 mm
07:00 PM 55.6°F13.1°C 42.8°F6.0°C 62% 16.9 mph W27.2 kmh W 20.8 mph33.5 kmh 29.33 in993.2 mb 0.00 in0.0 mm 0.00 in0.0 mm 0.20 in5.1 mm
07:15 PM 55.4°F13.0°C 42.2°F5.7°C 61% 13.7 mph W22.0 kmh W 20.8 mph33.5 kmh 29.33 in993.2 mb 0.00 in0.0 mm 0.00 in0.0 mm 0.20 in5.1 mm
07:30 PM 54.9°F12.7°C 41.7°F5.4°C 61% 10.5 mph W16.9 kmh W 12.9 mph20.8 kmh 29.30 in992.2 mb 0.00 in0.0 mm 0.00 in0.0 mm 0.20 in5.1 mm
07:45 PM 55.2°F12.9°C 42.0°F5.6°C 61% 10.5 mph W16.9 kmh W 12.9 mph20.8 kmh 29.33 in993.2 mb 0.00 in0.0 mm 0.00 in0.0 mm 0.20 in5.1 mm
08:00 PM 55.2°F12.9°C 41.6°F5.3°C 60% 10.5 mph W16.9 kmh W 12.9 mph20.8 kmh 29.33 in993.2 mb 0.00 in0.0 mm 0.00 in0.0 mm 0.20 in5.1 mm
08:15 PM 55.4°F13.0°C 42.2°F5.7°C 61% 10.5 mph W16.9 kmh W 12.9 mph20.8 kmh 29.33 in993.2 mb 0.00 in0.0 mm 0.00 in0.0 mm 0.20 in5.1 mm
08:30 PM 55.6°F13.1°C 42.8°F6.0°C 62% Calm Calm -- 29.30 in992.2 mb 0.00 in0.0 mm 0.00 in0.0 mm 0.20 in5.1 mm
08:45 PM 54.5°F12.5°C 43.8°F6.6°C 67% Calm Calm -- 29.30 in992.2 mb 0.00 in0.0 mm 0.00 in0.0 mm 0.20 in5.1 mm
09:00 PM 53.4°F11.9°C 42.7°F5.9°C 67% 18.6 mph W29.9 kmh W 22.9 mph36.9 kmh 29.33 in993.2 mb 0.00 in0.0 mm 0.00 in0.0 mm 0.20 in5.1 mm
09:15 PM 53.8°F12.1°C 42.7°F5.9°C 66% 11.4 mph W18.3 kmh W 27.2 mph43.8 kmh 29.33 in993.2 mb 0.00 in0.0 mm 0.00 in0.0 mm 0.20 in5.1 mm
09:30 PM 54.0°F12.2°C 43.2°F6.2°C 67% 12.7 mph W20.4 kmh W 21.1 mph34.0 kmh 29.33 in993.2 mb 0.00 in0.0 mm 0.00 in0.0 mm 0.20 in5.1 mm
10:30 PM 53.4°F11.9°C 43.1°F6.2°C 68% 11.0 mph WSW17.7 kmh WSW 16.8 mph27.0 kmh 29.36 in994.2 mb 0.00 in0.0 mm 0.00 in0.0 mm 0.20 in5.1 mm
10:45 PM 53.4°F11.9°C 42.7°F5.9°C 67% 10.9 mph W17.5 kmh W 19.3 mph31.1 kmh 29.36 in994.2 mb 0.00 in0.0 mm 0.00 in0.0 mm 0.20 in5.1 mm
11:00 PM 53.2°F11.8°C 42.9°F6.1°C 68% 8.4 mph WSW13.5 kmh WSW 15.7 mph25.3 kmh 29.36 in994.2 mb 0.00 in0.0 mm 0.00 in0.0 mm 0.19 in4.8 mm
11:15 PM 53.1°F11.7°C 42.8°F6.0°C 68% 10.7 mph WSW17.2 kmh WSW 16.8 mph27.0 kmh 29.39 in995.3 mb 0.00 in0.0 mm 0.00 in0.0 mm 0.19 in4.8 mm
11:30 PM 53.1°F11.7°C 42.8°F6.0°C 68% 12.3 mph W19.8 kmh W 20.0 mph32.2 kmh 29.36 in994.2 mb 0.00 in0.0 mm 0.00 in0.0 mm 0.19 in4.8 mm
11:45 PM 53.1°F11.7°C 42.4°F5.8°C 67% 10.7 mph W17.2 kmh W 21.1 mph34.0 kmh 29.39 in995.3 mb 0.00 in0.0 mm 0.00 in0.0 mm 0.19 in4.8 mm